Tamara — HOEH — position and weather

sailwx.info

Track history (hours):
 
Tides and Currents Weather Stations Pressure Air Temp Water Temp Dewpoint Dewpoint Depression Visibility Wind Speed Wind Dir Waves Ship Positions

Tamara

Last reported at 2016-Apr-30 12:18 UTC. Time now 2016-May-01 09:52 UTC.
Position N 36°39' W 000°46'.

Length 117 m; draft 5.4 m.

Type: Ship (hazmat cat A). MMSI: 353900000.

Date/timePositionNaut miles runAvg speedWind from/ knotsBaromVisibWave heightAir tempDewpointWater temp
2016-Apr-30 12:18N 36°39' W 000°46'21713.4
2016-Apr-29 20:10N 36°01' W 005°11'914.9
2016-Apr-29 19:33N 35°59' W 005°22'  
2016-Apr-25 08:33N 36°00' W 005°27'1111.2
2016-Apr-25 07:34N 36°03' W 005°13'39613.2
2016-Apr-24 01:28N 37°23' E 002°51'1213.0
2016-Apr-24 00:33N 37°24' E 003°06'42112.6
2016-Apr-22 15:09N 37°09' E 011°54'2713.2
2016-Apr-22 13:05N 36°59' E 012°26'5812.9
2016-Apr-22 08:33N 36°40' E 013°35'1313.1
2016-Apr-22 07:33N 36°36' E 013°51'1313.4
2016-Apr-22 06:33N 36°32' E 014°06'1413.6
2016-Apr-22 05:33N 36°27' E 014°22'1413.6
2016-Apr-22 04:33N 36°23' E 014°38'44011.5
2016-Apr-20 14:09N 37°08' E 023°45'813.7
2016-Apr-20 13:33N 37°16' E 023°46'1313.3
2016-Apr-20 12:33N 37°30' E 023°46'  
Track history (hours):
 
Tides and Currents Weather Stations Pressure Air Temp Water Temp Dewpoint Dewpoint Depression Visibility Wind Speed Wind Dir Waves Ship Positions

Tamara

Last reported at 2016-Apr-30 12:18 UTC. Time now 2016-May-01 09:52 UTC.
Position N 36°39' W 000°46'.

Length 117 m; draft 5.4 m.

Type: Ship (hazmat cat A). MMSI: 353900000.

Date/timePositionNaut miles runAvg speedWind from/ knotsBaromVisibWave heightAir tempDewpointWater temp
2016-Apr-30 12:18N 36°39' W 000°46'21713.4
2016-Apr-29 20:10N 36°01' W 005°11'914.9
2016-Apr-29 19:33N 35°59' W 005°22'  
2016-Apr-25 08:33N 36°00' W 005°27'1111.2
2016-Apr-25 07:34N 36°03' W 005°13'39613.2
2016-Apr-24 01:28N 37°23' E 002°51'1213.0
2016-Apr-24 00:33N 37°24' E 003°06'42112.6
2016-Apr-22 15:09N 37°09' E 011°54'2713.2
2016-Apr-22 13:05N 36°59' E 012°26'5812.9
2016-Apr-22 08:33N 36°40' E 013°35'1313.1
2016-Apr-22 07:33N 36°36' E 013°51'1313.4
2016-Apr-22 06:33N 36°32' E 014°06'1413.6
2016-Apr-22 05:33N 36°27' E 014°22'1413.6
2016-Apr-22 04:33N 36°23' E 014°38'44011.5
2016-Apr-20 14:09N 37°08' E 023°45'813.7
2016-Apr-20 13:33N 37°16' E 023°46'1313.3
2016-Apr-20 12:33N 37°30' E 023°46'  

Dump ship's entire track history